createdAt,value
2023-03-06T00:01:48.866Z,100334.19
2023-03-06T00:04:15.946Z,100335.03
2023-03-06T00:06:42.469Z,100334.16
2023-03-06T00:09:10.660Z,100335.88
2023-03-06T00:11:40.651Z,100322.97
2023-03-06T00:14:07.416Z,100335.03
2023-03-06T00:16:35.189Z,100326.41
2023-03-06T00:19:01.905Z,100332.44
2023-03-06T00:21:28.504Z,100327.28
2023-03-06T00:23:55.023Z,100329.84
2023-03-06T00:26:21.565Z,100332.44
2023-03-06T00:28:50.398Z,100324.66
2023-03-06T00:31:17.005Z,100328.09
2023-03-06T00:33:43.732Z,100327.22
2023-03-06T00:36:10.673Z,100333.22
2023-03-06T00:38:37.348Z,100323.78
2023-03-06T00:41:09.003Z,100321.19
2023-03-06T00:43:38.114Z,100318.59
2023-03-06T00:46:05.786Z,100317.72
2023-03-06T00:48:33.879Z,100324.59
2023-03-06T00:51:00.756Z,100322.88
2023-03-06T00:53:27.262Z,100322.00
2023-03-06T00:55:53.807Z,100319.41
2023-03-06T00:58:22.910Z,100319.41
2023-03-06T01:00:49.672Z,100317.66
2023-03-06T01:03:16.644Z,100318.50
2023-03-06T01:05:43.454Z,100315.91
2023-03-06T01:08:10.085Z,100316.75
2023-03-06T01:10:43.465Z,100308.97
2023-03-06T01:13:13.635Z,100311.56
2023-03-06T01:15:40.452Z,100316.72
2023-03-06T01:18:08.106Z,100312.41
2023-03-06T01:20:36.351Z,100311.53
2023-03-06T01:23:02.905Z,100309.81
2023-03-06T01:25:29.726Z,100311.53
2023-03-06T01:27:56.451Z,100302.03
2023-03-06T01:30:23.023Z,100306.31
2023-03-06T01:32:51.204Z,100302.88
2023-03-06T01:35:18.055Z,100302.00
2023-03-06T01:37:44.829Z,100299.44
2023-03-06T01:40:12.737Z,100302.03
2023-03-06T01:42:39.679Z,100302.88
2023-03-06T01:45:17.598Z,100301.16
2023-03-06T01:47:45.558Z,100296.88
2023-03-06T01:50:12.864Z,100294.28
2023-03-06T01:52:46.650Z,100291.72
2023-03-06T01:55:23.435Z,100297.72
2023-03-06T01:57:54.924Z,100284.81
2023-03-06T02:00:25.368Z,100284.00
2023-03-06T02:02:55.631Z,100278.84
2023-03-06T02:05:23.961Z,100275.41
2023-03-06T02:07:51.817Z,100271.94
2023-03-06T02:10:19.367Z,100278.84
2023-03-06T02:12:47.837Z,100278.00
2023-03-06T02:15:19.774Z,100266.78
2023-03-06T02:17:50.147Z,100267.69
2023-03-06T02:20:37.137Z,100275.44
2023-03-06T02:23:16.565Z,100272.00
2023-03-06T02:25:48.455Z,100266.84
2023-03-06T02:28:18.258Z,100258.22
2023-03-06T02:30:47.900Z,100259.94
2023-03-06T02:33:17.461Z,100255.63
2023-03-06T02:35:53.149Z,100254.78
2023-03-06T02:38:23.793Z,100261.69
2023-03-06T02:40:58.094Z,100255.63
2023-03-06T02:43:32.238Z,100252.22
2023-03-06T02:45:58.860Z,100251.38
2023-03-06T02:48:26.233Z,100248.78
2023-03-06T02:50:52.745Z,100239.31
2023-03-06T02:53:21.364Z,100234.16
2023-03-06T02:55:48.282Z,100239.31
2023-03-06T02:58:18.099Z,100229.84
2023-03-06T03:00:49.383Z,100226.41
2023-03-06T03:03:18.825Z,100227.25
2023-03-06T03:05:45.957Z,100225.56
2023-03-06T03:08:19.524Z,100218.66
2023-03-06T03:10:46.950Z,100223.81
2023-03-06T03:13:14.302Z,100216.06
2023-03-06T03:15:42.293Z,100224.66
2023-03-06T03:18:11.134Z,100212.59
2023-03-06T03:20:42.173Z,100207.44
2023-03-06T03:23:08.737Z,100207.41
2023-03-06T03:25:35.470Z,100217.75
2023-03-06T03:28:02.231Z,100216.03
2023-03-06T03:30:31.229Z,100212.56
2023-03-06T03:32:57.999Z,100213.41
2023-03-06T03:35:27.122Z,100215.16
2023-03-06T03:37:55.248Z,100212.56
2023-03-06T03:40:22.281Z,100211.72
2023-03-06T03:42:50.808Z,100208.25
2023-03-06T03:45:17.410Z,100207.38
2023-03-06T03:47:45.051Z,100201.34
2023-03-06T03:50:12.922Z,100198.75
2023-03-06T03:52:42.282Z,100197.91
2023-03-06T03:55:12.258Z,100198.75
2023-03-06T03:57:41.397Z,100193.56
2023-03-06T04:00:11.863Z,100190.97
2023-03-06T04:02:47.043Z,100183.22
2023-03-06T04:05:22.530Z,100182.31
2023-03-06T04:07:49.036Z,100178.88
2023-03-06T04:10:16.296Z,100184.91
2023-03-06T04:12:43.526Z,100179.72
2023-03-06T04:15:11.383Z,100178.81
2023-03-06T04:17:38.924Z,100177.09
2023-03-06T04:20:09.841Z,100181.38
2023-03-06T04:22:38.533Z,100174.47
2023-03-06T04:25:06.014Z,100172.72
2023-03-06T04:27:34.596Z,100166.69
2023-03-06T04:30:05.805Z,100164.03
2023-03-06T04:32:35.805Z,100161.44
2023-03-06T04:35:04.684Z,100161.38
2023-03-06T04:37:36.150Z,100152.75
2023-03-06T04:40:03.514Z,100162.19
2023-03-06T04:42:33.369Z,100158.69
2023-03-06T04:45:01.697Z,100146.63
2023-03-06T04:47:28.259Z,100148.34
2023-03-06T04:49:56.759Z,100151.75
2023-03-06T04:52:23.429Z,100142.28
2023-03-06T04:54:52.766Z,100143.09
2023-03-06T04:57:19.344Z,100142.25
2023-03-06T04:59:46.278Z,100138.75
2023-03-06T05:02:14.016Z,100139.56
2023-03-06T05:04:41.881Z,100142.09
2023-03-06T05:07:08.592Z,100142.91
2023-03-06T05:09:37.163Z,100137.66
2023-03-06T05:12:05.316Z,100140.22
2023-03-06T05:14:32.151Z,100140.19
2023-03-06T05:16:58.684Z,100138.44
2023-03-06T05:19:25.927Z,100135.84
2023-03-06T05:21:52.531Z,100138.38
2023-03-06T05:24:18.984Z,100146.03
2023-03-06T05:26:48.295Z,100143.44
2023-03-06T05:29:17.950Z,100138.25
2023-03-06T05:31:45.678Z,100136.50
2023-03-06T05:34:14.208Z,100139.03
2023-03-06T05:36:49.947Z,100139.84
2023-03-06T05:39:16.639Z,100138.94
2023-03-06T05:41:46.254Z,100133.75
2023-03-06T05:44:14.850Z,100140.59
2023-03-06T05:46:41.365Z,100135.41
2023-03-06T05:49:08.041Z,100139.69
2023-03-06T05:51:34.586Z,100133.63
2023-03-06T05:54:03.899Z,100137.06
2023-03-06T05:56:30.915Z,100141.28
2023-03-06T05:58:58.473Z,100142.13
2023-03-06T06:01:25.694Z,100142.94
2023-03-06T06:03:52.337Z,100138.63
2023-03-06T06:06:19.111Z,100142.03
2023-03-06T06:08:49.050Z,100144.59
2023-03-06T06:11:18.191Z,100139.41
2023-03-06T06:13:44.935Z,100141.06
2023-03-06T06:16:15.767Z,100140.25
2023-03-06T06:18:43.471Z,100141.06
2023-03-06T06:21:11.779Z,100135.06
2023-03-06T06:23:44.516Z,100123.03
2023-03-06T06:26:11.353Z,100129.84
2023-03-06T06:28:38.037Z,100134.16
2023-03-06T06:31:13.480Z,100133.31
2023-03-06T06:33:41.386Z,100129.00
2023-03-06T06:36:21.586Z,100129.00
2023-03-06T06:38:49.088Z,100134.97
2023-03-06T06:41:42.325Z,100130.66
2023-03-06T06:44:08.687Z,100135.00
2023-03-06T06:49:24.462Z,100132.47
2023-03-06T06:51:51.561Z,100135.06
2023-03-06T06:54:19.972Z,100136.78
2023-03-06T06:56:46.825Z,100135.13
2023-03-06T06:59:17.212Z,100136.03
2023-03-06T07:01:46.969Z,100132.63
2023-03-06T07:04:14.668Z,100136.13
2023-03-06T07:06:42.003Z,100131.84
2023-03-06T07:09:08.648Z,100126.69
2023-03-06T07:11:37.269Z,100133.59
2023-03-06T07:14:05.995Z,100128.50
2023-03-06T07:16:33.055Z,100138.84
2023-03-06T07:18:59.594Z,100135.47
2023-03-06T07:21:28.859Z,100127.78
2023-03-06T07:23:57.440Z,100127.81
2023-03-06T07:26:28.273Z,100128.72
2023-03-06T07:28:55.143Z,100124.44
2023-03-06T07:31:24.688Z,100127.06
2023-03-06T07:33:54.229Z,100121.09
2023-03-06T07:36:22.395Z,100121.19
2023-03-06T07:38:48.925Z,100116.06
2023-03-06T07:41:16.544Z,100125.56
2023-03-06T07:43:45.592Z,100126.47
2023-03-06T07:46:14.291Z,100124.78
2023-03-06T07:48:41.779Z,100124.03
2023-03-06T07:51:15.981Z,100127.53
2023-03-06T07:53:42.816Z,100125.03
2023-03-06T07:56:11.768Z,100133.63
2023-03-06T07:58:41.207Z,100130.22
2023-03-06T08:01:12.849Z,100140.53
2023-03-06T08:03:39.536Z,100138.00
2023-03-06T08:06:10.802Z,100141.47
2023-03-06T08:08:39.501Z,100138.94
2023-03-06T08:11:07.961Z,100143.28
2023-03-06T08:13:35.615Z,100144.19
2023-03-06T08:16:02.733Z,100146.81
2023-03-06T08:18:29.627Z,100152.88
2023-03-06T08:21:13.805Z,100155.47
2023-03-06T08:23:41.923Z,100151.25
2023-03-06T08:26:16.580Z,100151.28
2023-03-06T08:28:43.322Z,100153.06
2023-03-06T08:31:13.332Z,100161.69
2023-03-06T08:33:41.091Z,100160.00
2023-03-06T08:36:07.862Z,100155.69
2023-03-06T08:38:34.405Z,100160.03
2023-03-06T08:41:01.079Z,100159.19
2023-03-06T08:43:32.252Z,100166.97
2023-03-06T08:45:59.189Z,100165.28
2023-03-06T08:48:26.152Z,100164.44
2023-03-06T08:50:52.997Z,100162.75
2023-03-06T08:53:19.428Z,100162.78
2023-03-06T08:55:46.233Z,100162.81
2023-03-06T08:58:13.036Z,100168.81
2023-03-06T09:00:39.899Z,100167.97
2023-03-06T09:03:09.192Z,100162.84
2023-03-06T09:05:36.198Z,100157.72
2023-03-06T09:08:02.983Z,100160.34
2023-03-06T09:10:29.711Z,100161.31
2023-03-06T09:12:56.449Z,100166.50
2023-03-06T09:15:23.781Z,100169.13
2023-03-06T09:17:54.114Z,100166.56
2023-03-06T09:20:23.057Z,100167.47
2023-03-06T09:22:49.934Z,100176.97
2023-03-06T09:25:20.450Z,100176.13
2023-03-06T09:27:55.388Z,100169.25
2023-03-06T09:30:28.601Z,100177.00
2023-03-06T09:32:55.206Z,100172.69
2023-03-06T09:35:21.800Z,100175.28
2023-03-06T09:37:51.243Z,100171.84
2023-03-06T09:40:33.487Z,100174.44
2023-03-06T09:43:00.928Z,100180.47
2023-03-06T09:45:28.778Z,100179.59
2023-03-06T09:48:07.688Z,100177.91
2023-03-06T09:50:40.239Z,100179.66
2023-03-06T09:53:28.598Z,100183.13
2023-03-06T09:56:08.041Z,100173.66
2023-03-06T09:58:40.108Z,100167.63
2023-03-06T10:01:17.185Z,100169.41
2023-03-06T10:03:46.743Z,100172.84
2023-03-06T10:06:25.532Z,100166.81
2023-03-06T10:09:04.782Z,100163.38
2023-03-06T10:11:39.420Z,100153.88
2023-03-06T10:14:21.788Z,100160.78
2023-03-06T10:16:48.792Z,100162.50
2023-03-06T10:19:21.009Z,100159.94
2023-03-06T10:21:48.460Z,100151.28
2023-03-06T10:24:27.673Z,100154.75
2023-03-06T10:27:23.718Z,100143.53
2023-03-06T10:30:02.540Z,100151.28
2023-03-06T10:33:10.831Z,100142.63
2023-03-06T10:35:48.354Z,100134.84
2023-03-06T10:38:21.107Z,100142.63
2023-03-06T10:41:23.426Z,100140.03
2023-03-06T10:44:05.215Z,100140.91
2023-03-06T10:46:37.130Z,100135.69
2023-03-06T10:49:06.267Z,100138.28
2023-03-06T10:51:34.194Z,100135.66
2023-03-06T10:54:19.266Z,100138.25
2023-03-06T10:56:47.380Z,100125.31
2023-03-06T10:59:18.603Z,100130.50
2023-03-06T11:01:54.818Z,100133.09
2023-03-06T11:04:35.317Z,100125.31
2023-03-06T11:07:14.821Z,100120.13
2023-03-06T11:09:56.816Z,100123.56
2023-03-06T11:12:32.755Z,100124.41
2023-03-06T11:15:14.745Z,100120.91
2023-03-06T11:18:08.831Z,100113.94
2023-03-06T11:20:52.471Z,100113.91
2023-03-06T11:23:38.630Z,100110.38
2023-03-06T11:26:17.587Z,100112.94
2023-03-06T11:28:57.401Z,100105.97
2023-03-06T11:31:30.875Z,100104.19
2023-03-06T11:34:21.965Z,100100.66
2023-03-06T11:37:01.229Z,100094.50
2023-03-06T11:39:44.363Z,100099.59
2023-03-06T11:42:27.287Z,100098.75
2023-03-06T11:45:03.162Z,100091.81
2023-03-06T11:47:39.098Z,100094.41
2023-03-06T11:50:35.992Z,100094.38
2023-03-06T11:53:05.344Z,100087.41
2023-03-06T11:55:44.567Z,100085.63
2023-03-06T11:58:42.249Z,100093.41
2023-03-06T12:01:23.680Z,100083.00
2023-03-06T12:04:04.812Z,100089.91
2023-03-06T12:06:51.911Z,100086.38
2023-03-06T12:09:33.442Z,100091.47
2023-03-06T12:12:15.114Z,100087.97
2023-03-06T12:15:17.765Z,100087.03
2023-03-06T12:18:03.562Z,100081.81
2023-03-06T12:20:54.694Z,100085.28
2023-03-06T12:23:58.748Z,100080.03
2023-03-06T12:26:33.601Z,100079.16
2023-03-06T12:29:23.387Z,100072.13
2023-03-06T12:31:59.892Z,100065.16
2023-03-06T12:34:56.952Z,100062.44
2023-03-06T12:37:29.307Z,100071.06
2023-03-06T12:40:06.879Z,100069.31
2023-03-06T12:42:36.468Z,100066.69
2023-03-06T12:45:30.978Z,100058.88
2023-03-06T12:48:02.720Z,100064.16
2023-03-06T12:50:36.921Z,100062.38
2023-03-06T12:53:10.656Z,100057.19
2023-03-06T12:55:47.171Z,100051.13
2023-03-06T12:58:31.143Z,100051.94
2023-03-06T13:01:08.840Z,100050.97
2023-03-06T13:03:55.700Z,100037.88
2023-03-06T13:06:28.550Z,100042.16
2023-03-06T13:09:18.876Z,100041.22
2023-03-06T13:12:02.724Z,100036.00
2023-03-06T13:14:42.365Z,100045.50
2023-03-06T13:17:26.987Z,100047.13
2023-03-06T13:20:16.246Z,100046.19
2023-03-06T13:22:44.517Z,100040.09
2023-03-06T13:25:32.473Z,100040.09
2023-03-06T13:28:00.932Z,100042.69
2023-03-06T13:30:36.776Z,100037.44
2023-03-06T13:33:32.966Z,100040.81
2023-03-06T13:36:19.335Z,100037.25
2023-03-06T13:38:49.011Z,100037.19
2023-03-06T13:41:28.006Z,100025.91
2023-03-06T13:43:55.665Z,100030.19
2023-03-06T13:46:27.709Z,100026.78
2023-03-06T13:49:23.584Z,100035.44
2023-03-06T13:51:53.171Z,100037.19
2023-03-06T13:54:24.889Z,100029.38
2023-03-06T13:57:30.606Z,100025.00
2023-03-06T14:00:37.286Z,100027.59
2023-03-06T14:03:06.728Z,100029.34
2023-03-06T14:05:45.421Z,100028.47
2023-03-06T14:08:18.046Z,100019.78
2023-03-06T14:10:47.343Z,100026.66
2023-03-06T14:13:32.319Z,100015.38
2023-03-06T14:16:01.944Z,100018.81
2023-03-06T14:18:38.378Z,100017.06
2023-03-06T14:21:13.345Z,100010.09
2023-03-06T14:23:45.804Z,100015.28
2023-03-06T14:26:33.632Z,100007.47
2023-03-06T14:29:02.940Z,100009.16
2023-03-06T14:31:36.803Z,100001.34
2023-03-06T14:34:05.067Z,100007.34
2023-03-06T14:36:45.014Z,99997.78
2023-03-06T14:39:21.532Z,99989.91
2023-03-06T14:42:04.755Z,99995.00
2023-03-06T14:44:31.297Z,99989.75
2023-03-06T14:47:21.616Z,99991.50
2023-03-06T14:49:48.442Z,99988.94
2023-03-06T14:52:20.819Z,99982.97
2023-03-06T14:54:48.593Z,99991.69
2023-03-06T14:57:20.781Z,99992.63
2023-03-06T14:59:55.731Z,99993.63
2023-03-06T15:02:29.893Z,99999.75
2023-03-06T15:05:08.488Z,100000.72
2023-03-06T15:07:38.437Z,99999.03
2023-03-06T15:10:10.497Z,99998.22
2023-03-06T15:12:40.123Z,99998.25
2023-03-06T15:15:06.765Z,99994.00
2023-03-06T15:17:43.587Z,99990.63
2023-03-06T15:20:31.429Z,99994.19
2023-03-06T15:22:57.966Z,99988.16
2023-03-06T15:25:26.652Z,99992.53
2023-03-06T15:28:01.229Z,99979.59
2023-03-06T15:30:32.719Z,99978.81
2023-03-06T15:33:24.522Z,99977.97
2023-03-06T15:35:56.930Z,99984.13
2023-03-06T15:38:41.918Z,99979.88
2023-03-06T15:41:43.378Z,99973.88
2023-03-06T15:44:16.067Z,99973.13
2023-03-06T15:46:42.633Z,99973.19
2023-03-06T15:49:16.577Z,99965.50
2023-03-06T15:51:43.682Z,99969.03
2023-03-06T15:54:12.530Z,99969.09
2023-03-06T15:56:44.907Z,99964.00
2023-03-06T15:59:21.609Z,99965.78
2023-03-06T16:01:50.423Z,99967.56
2023-03-06T16:04:18.205Z,99969.34
2023-03-06T16:06:45.909Z,99967.63
2023-03-06T16:09:15.931Z,99965.06
2023-03-06T16:11:44.846Z,99966.81
2023-03-06T16:14:23.862Z,99962.50
2023-03-06T16:16:54.127Z,99961.66
2023-03-06T16:19:27.138Z,99956.53
2023-03-06T16:21:55.822Z,99960.84
2023-03-06T16:24:26.032Z,99955.72
2023-03-06T16:26:55.717Z,99956.59
2023-03-06T16:29:28.512Z,99962.69
2023-03-06T16:31:56.564Z,99955.81
2023-03-06T16:34:23.814Z,99950.63
2023-03-06T16:36:51.077Z,99949.81
2023-03-06T16:39:21.552Z,99954.13
2023-03-06T16:41:52.200Z,99954.16
2023-03-06T16:44:20.054Z,99954.22
2023-03-06T16:46:49.215Z,99950.78
2023-03-06T16:49:19.098Z,99956.88
2023-03-06T16:51:47.982Z,99961.25
2023-03-06T16:54:14.653Z,99956.13
2023-03-06T16:56:41.672Z,99946.66
2023-03-06T16:59:09.705Z,99957.00
2023-03-06T17:01:36.840Z,99952.75
2023-03-06T17:04:03.750Z,99949.31
2023-03-06T17:06:30.641Z,99951.06
2023-03-06T17:09:00.164Z,99943.34
2023-03-06T17:11:29.646Z,99941.66
2023-03-06T17:14:01.786Z,99939.13
2023-03-06T17:16:28.651Z,99944.31
2023-03-06T17:18:58.208Z,99934.88
2023-03-06T17:21:26.956Z,99938.38
2023-03-06T17:23:53.688Z,99941.84
2023-03-06T17:26:25.384Z,99937.56
2023-03-06T17:28:51.975Z,99938.47
2023-03-06T17:31:26.649Z,99934.19
2023-03-06T17:33:59.050Z,99937.69
2023-03-06T17:36:27.866Z,99940.28
2023-03-06T17:38:56.756Z,99937.72
2023-03-06T17:41:26.723Z,99934.28
2023-03-06T17:43:55.964Z,99932.59
2023-03-06T17:46:22.833Z,99936.09
2023-03-06T17:48:51.754Z,99930.09
2023-03-06T17:51:18.338Z,99927.50
2023-03-06T17:53:45.067Z,99932.72
2023-03-06T17:56:13.716Z,99929.31
2023-03-06T17:58:40.926Z,99923.31
2023-03-06T18:01:16.069Z,99919.03
2023-03-06T18:03:48.857Z,99920.81
2023-03-06T18:06:17.510Z,99924.28
2023-03-06T18:08:45.924Z,99919.13
2023-03-06T18:11:14.067Z,99913.97
2023-03-06T18:13:43.666Z,99907.09
2023-03-06T18:16:16.522Z,99909.72
2023-03-06T18:18:43.786Z,99903.72
2023-03-06T18:21:13.290Z,99907.19
2023-03-06T18:23:41.508Z,99902.88
2023-03-06T18:26:18.624Z,99897.72
2023-03-06T18:28:47.921Z,99893.44
2023-03-06T18:31:20.800Z,99896.03
2023-03-06T18:33:50.871Z,99892.59
2023-03-06T18:36:18.072Z,99887.44
2023-03-06T18:38:45.690Z,99882.28
2023-03-06T18:41:13.323Z,99883.16
2023-03-06T18:43:40.297Z,99878.00
2023-03-06T18:46:07.822Z,99874.56
2023-03-06T18:48:34.581Z,99865.94
2023-03-06T18:51:06.626Z,99860.75
2023-03-06T18:53:33.958Z,99850.44
2023-03-06T18:56:13.596Z,99853.88
2023-03-06T18:58:40.760Z,99855.66
2023-03-06T19:01:07.889Z,99847.88
2023-03-06T19:03:37.067Z,99847.00
2023-03-06T19:06:06.092Z,99847.88
2023-03-06T19:08:36.491Z,99847.88
2023-03-06T19:11:05.677Z,99846.16
2023-03-06T19:13:32.812Z,99842.72
2023-03-06T19:16:01.928Z,99835.81
2023-03-06T19:18:30.934Z,99834.94
2023-03-06T19:21:08.516Z,99828.91
2023-03-06T19:23:35.266Z,99828.94
2023-03-06T19:26:02.110Z,99825.47
2023-03-06T19:28:28.866Z,99820.31
2023-03-06T19:30:58.180Z,99820.31
2023-03-06T19:33:24.979Z,99816.00
2023-03-06T19:35:51.742Z,99823.75
2023-03-06T19:38:18.337Z,99815.16
2023-03-06T19:40:50.982Z,99816.00
2023-03-06T19:43:17.659Z,99804.81
2023-03-06T19:45:44.755Z,99801.34
2023-03-06T19:48:12.464Z,99798.78
2023-03-06T19:50:42.062Z,99794.47
2023-03-06T19:53:11.046Z,99785.88
2023-03-06T19:55:38.338Z,99787.59
2023-03-06T19:58:04.983Z,99779.84
2023-03-06T20:00:34.008Z,99772.97
2023-03-06T20:03:00.829Z,99776.41
2023-03-06T20:05:33.427Z,99766.09
2023-03-06T20:08:00.145Z,99760.09
2023-03-06T20:10:26.780Z,99760.06
2023-03-06T20:12:53.397Z,99758.38
2023-03-06T20:15:22.137Z,99752.34
2023-03-06T20:17:49.024Z,99744.59
2023-03-06T20:20:15.995Z,99731.69
2023-03-06T20:22:42.834Z,99732.53
2023-03-06T20:25:11.826Z,99724.78
2023-03-06T20:27:38.470Z,99722.19
2023-03-06T20:30:07.903Z,99711.88
2023-03-06T20:32:34.909Z,99712.75
2023-03-06T20:35:07.907Z,99707.59
2023-03-06T20:37:34.550Z,99703.25
2023-03-06T20:40:01.245Z,99704.09
2023-03-06T20:42:30.012Z,99698.94
2023-03-06T20:44:56.645Z,99692.91
2023-03-06T20:47:23.498Z,99679.16
2023-03-06T20:49:50.033Z,99672.25
2023-03-06T20:52:17.964Z,99671.38
2023-03-06T20:54:45.409Z,99657.59
2023-03-06T20:57:16.280Z,99656.75
2023-03-06T20:59:43.543Z,99650.75
2023-03-06T21:02:11.698Z,99643.84
2023-03-06T21:04:40.958Z,99637.81
2023-03-06T21:07:07.827Z,99635.25
2023-03-06T21:09:37.594Z,99630.09
2023-03-06T21:12:04.982Z,99628.38
2023-03-06T21:14:31.688Z,99613.75
2023-03-06T21:17:01.235Z,99620.66
2023-03-06T21:19:27.871Z,99629.25
2023-03-06T21:21:55.803Z,99613.75
2023-03-06T21:24:22.344Z,99612.03
2023-03-06T21:26:51.003Z,99608.63
2023-03-06T21:29:20.441Z,99594.00
2023-03-06T21:31:49.243Z,99598.31
2023-03-06T21:34:16.054Z,99592.28
2023-03-06T21:36:44.674Z,99588.84
2023-03-06T21:39:16.872Z,99580.25
2023-03-06T21:41:43.425Z,99580.22
2023-03-06T21:44:11.224Z,99566.44
2023-03-06T21:46:37.815Z,99562.97
2023-03-06T21:49:07.938Z,99558.66
2023-03-06T21:51:37.088Z,99551.75
2023-03-06T21:54:06.212Z,99545.69
2023-03-06T21:56:33.508Z,99543.09
2023-03-06T21:59:00.943Z,99533.63
2023-03-06T22:01:28.879Z,99525.88
2023-03-06T22:03:58.195Z,99524.13
2023-03-06T22:06:27.429Z,99525.00
2023-03-06T22:08:55.639Z,99506.03
2023-03-06T22:11:26.844Z,99511.22
2023-03-06T22:13:56.033Z,99500.00
2023-03-06T22:16:22.638Z,99493.13
2023-03-06T22:18:50.889Z,99492.22
2023-03-06T22:21:25.644Z,99471.53
2023-03-06T22:23:56.507Z,99475.84
2023-03-06T22:26:31.333Z,99471.56
2023-03-06T22:28:58.051Z,99457.75
2023-03-06T22:31:29.652Z,99452.56
2023-03-06T22:34:02.838Z,99456.91
2023-03-06T22:36:30.957Z,99453.47
2023-03-06T22:39:00.830Z,99454.31
2023-03-06T22:41:28.035Z,99439.69
2023-03-06T22:44:04.721Z,99437.97
2023-03-06T22:46:32.649Z,99430.22
2023-03-06T22:49:02.547Z,99415.56
2023-03-06T22:51:29.695Z,99412.97
2023-03-06T22:53:56.650Z,99405.22
2023-03-06T22:56:23.452Z,99394.91
2023-03-06T22:58:50.345Z,99400.06
2023-03-06T23:01:19.712Z,99387.16
2023-03-06T23:03:51.964Z,99388.88
2023-03-06T23:06:24.663Z,99379.34
2023-03-06T23:09:03.657Z,99382.81
2023-03-06T23:11:30.864Z,99381.06
2023-03-06T23:14:17.685Z,99368.19
2023-03-06T23:17:02.884Z,99365.63
2023-03-06T23:19:49.815Z,99354.47
2023-03-06T23:22:35.027Z,99356.19
2023-03-06T23:25:20.837Z,99345.94
2023-03-06T23:27:47.508Z,99333.91
2023-03-06T23:30:14.316Z,99327.03
2023-03-06T23:32:41.203Z,99327.97
2023-03-06T23:35:08.468Z,99321.94
2023-03-06T23:37:35.124Z,99303.88
2023-03-06T23:40:01.980Z,99299.63
2023-03-06T23:42:28.756Z,99293.63
2023-03-06T23:44:55.799Z,99293.66
2023-03-06T23:47:22.377Z,99285.94
2023-03-06T23:49:51.163Z,99276.53
2023-03-06T23:52:17.713Z,99264.47
2023-03-06T23:54:44.483Z,99264.47
2023-03-06T23:57:13.967Z,99255.88
2023-03-06T23:59:42.412Z,99249.00
